Mariaburg — ONFJ — position and weather

sailwx.info

Track history (hours):
 
Tides and Currents Weather Stations Pressure Air Temp Water Temp Dewpoint Dewpoint Depression Visibility Wind Speed Wind Dir Waves Ship Positions

Mariaburg

Last reported at 2017-Nov-18 15:14 UTC. Time now 2017-Nov-24 04:07 UTC.
Position N 54°45' E 010°24'.

Length 75 m; draft 4.3 m.

Type: Cargo ship. MMSI: 205521000.

Date/timePositionNaut miles runAvg speedWind from/ knotsBaromVisibWave heightAir tempDewpointWater temp
2017-Nov-18 15:14N 54°45' E 010°24'2 8.6
2017-Nov-18 14:59N 54°43' E 010°27'4 8.7
2017-Nov-18 14:30N 54°41' E 010°32'4 8.6
2017-Nov-18 14:00N 54°39' E 010°38'4 8.3
2017-Nov-18 13:30N 54°37' E 010°45'4 8.3
2017-Nov-18 13:00N 54°37' E 010°52'4 7.8
2017-Nov-18 12:30N 54°37' E 010°59'4 7.6
2017-Nov-18 12:00N 54°36' E 011°06'4 7.5
2017-Nov-18 11:30N 54°36' E 011°12'4 7.9
2017-Nov-18 11:00N 54°34' E 011°18'4 7.7
2017-Nov-18 10:30N 54°33' E 011°24'4 7.4
2017-Nov-18 10:00N 54°31' E 011°30'4 7.1
2017-Nov-18 09:30N 54°30' E 011°36'3 6.9
2017-Nov-18 09:00N 54°29' E 011°42'3 6.4
2017-Nov-18 08:30N 54°28' E 011°47'10 6.5
2017-Nov-18 07:01N 54°27' E 012°03'0 6.9
2017-Nov-18 07:00N 54°27' E 012°04'3 6.9
2017-Nov-18 06:30N 54°28' E 012°09'4 7.3
2017-Nov-18 06:00N 54°31' E 012°11'237 7.8
2017-Nov-16 23:47N 54°52' E 019°00'3 9.0
2017-Nov-16 23:26N 54°51' E 019°05'  
2017-Nov-12 20:13N 54°47' E 019°25'510.4
2017-Nov-12 19:46N 54°49' E 019°17'310.4
2017-Nov-12 19:30N 54°50' E 019°12'510.4
2017-Nov-12 19:00N 54°52' E 019°04'510.6
2017-Nov-12 18:30N 54°54' E 018°56'510.8
2017-Nov-12 18:00N 54°55' E 018°47'610.9
2017-Nov-12 17:29N 54°57' E 018°38'510.3
2017-Nov-12 17:00N 54°57' E 018°29'90 9.5
2017-Nov-12 07:30N 55°37' E 016°06'5 7.7
2017-Nov-12 06:55N 55°38' E 015°59'3 7.5
2017-Nov-12 06:30N 55°40' E 015°54'4 7.1
2017-Nov-12 06:00N 55°41' E 015°48'4 8.0
2017-Nov-12 05:30N 55°43' E 015°42'4 8.0
2017-Nov-12 05:00N 55°44' E 015°35'4 8.0
2017-Nov-12 04:30N 55°46' E 015°29'4 8.1
2017-Nov-12 04:00N 55°48' E 015°22'4 8.2
2017-Nov-12 03:30N 55°49' E 015°15'4 8.0
2017-Nov-12 03:00N 55°51' E 015°09'4 8.6
2017-Nov-12 02:29N 55°52' E 015°01'  
2017-Nov-08 22:49N 55°58' E 014°37'4 7.5
2017-Nov-08 22:15N 55°54' E 014°37'6 8.9
2017-Nov-08 21:37N 55°48' E 014°37'1 9.3
2017-Nov-08 21:29N 55°47' E 014°37'5 9.4
2017-Nov-08 21:00N 55°43' E 014°37'7 9.5
2017-Nov-08 20:13N 55°35' E 014°36'4 9.5
2017-Nov-08 19:48N 55°31' E 014°36'5 9.7
2017-Nov-08 19:20N 55°27' E 014°36'4 9.9
2017-Nov-08 18:58N 55°23' E 014°36'510.0
2017-Nov-08 18:30N 55°20' E 014°31'7 9.6
2017-Nov-08 17:45N 55°14' E 014°23'  
Track history (hours):
 
Tides and Currents Weather Stations Pressure Air Temp Water Temp Dewpoint Dewpoint Depression Visibility Wind Speed Wind Dir Waves Ship Positions

Mariaburg

Last reported at 2017-Nov-18 15:14 UTC. Time now 2017-Nov-24 04:07 UTC.
Position N 54°45' E 010°24'.

Length 75 m; draft 4.3 m.

Type: Cargo ship. MMSI: 205521000.

Date/timePositionNaut miles runAvg speedWind from/ knotsBaromVisibWave heightAir tempDewpointWater temp
2017-Nov-18 15:14N 54°45' E 010°24'2 8.6
2017-Nov-18 14:59N 54°43' E 010°27'4 8.7
2017-Nov-18 14:30N 54°41' E 010°32'4 8.6
2017-Nov-18 14:00N 54°39' E 010°38'4 8.3
2017-Nov-18 13:30N 54°37' E 010°45'4 8.3
2017-Nov-18 13:00N 54°37' E 010°52'4 7.8
2017-Nov-18 12:30N 54°37' E 010°59'4 7.6
2017-Nov-18 12:00N 54°36' E 011°06'4 7.5
2017-Nov-18 11:30N 54°36' E 011°12'4 7.9
2017-Nov-18 11:00N 54°34' E 011°18'4 7.7
2017-Nov-18 10:30N 54°33' E 011°24'4 7.4
2017-Nov-18 10:00N 54°31' E 011°30'4 7.1
2017-Nov-18 09:30N 54°30' E 011°36'3 6.9
2017-Nov-18 09:00N 54°29' E 011°42'3 6.4
2017-Nov-18 08:30N 54°28' E 011°47'10 6.5
2017-Nov-18 07:01N 54°27' E 012°03'0 6.9
2017-Nov-18 07:00N 54°27' E 012°04'3 6.9
2017-Nov-18 06:30N 54°28' E 012°09'4 7.3
2017-Nov-18 06:00N 54°31' E 012°11'237 7.8
2017-Nov-16 23:47N 54°52' E 019°00'3 9.0
2017-Nov-16 23:26N 54°51' E 019°05'  
2017-Nov-12 20:13N 54°47' E 019°25'510.4
2017-Nov-12 19:46N 54°49' E 019°17'310.4
2017-Nov-12 19:30N 54°50' E 019°12'510.4
2017-Nov-12 19:00N 54°52' E 019°04'510.6
2017-Nov-12 18:30N 54°54' E 018°56'510.8
2017-Nov-12 18:00N 54°55' E 018°47'610.9
2017-Nov-12 17:29N 54°57' E 018°38'510.3
2017-Nov-12 17:00N 54°57' E 018°29'90 9.5
2017-Nov-12 07:30N 55°37' E 016°06'5 7.7
2017-Nov-12 06:55N 55°38' E 015°59'3 7.5
2017-Nov-12 06:30N 55°40' E 015°54'4 7.1
2017-Nov-12 06:00N 55°41' E 015°48'4 8.0
2017-Nov-12 05:30N 55°43' E 015°42'4 8.0
2017-Nov-12 05:00N 55°44' E 015°35'4 8.0
2017-Nov-12 04:30N 55°46' E 015°29'4 8.1
2017-Nov-12 04:00N 55°48' E 015°22'4 8.2
2017-Nov-12 03:30N 55°49' E 015°15'4 8.0
2017-Nov-12 03:00N 55°51' E 015°09'4 8.6
2017-Nov-12 02:29N 55°52' E 015°01'  
2017-Nov-08 22:49N 55°58' E 014°37'4 7.5
2017-Nov-08 22:15N 55°54' E 014°37'6 8.9
2017-Nov-08 21:37N 55°48' E 014°37'1 9.3
2017-Nov-08 21:29N 55°47' E 014°37'5 9.4
2017-Nov-08 21:00N 55°43' E 014°37'7 9.5
2017-Nov-08 20:13N 55°35' E 014°36'4 9.5
2017-Nov-08 19:48N 55°31' E 014°36'5 9.7
2017-Nov-08 19:20N 55°27' E 014°36'4 9.9
2017-Nov-08 18:58N 55°23' E 014°36'510.0
2017-Nov-08 18:30N 55°20' E 014°31'7 9.6
2017-Nov-08 17:45N 55°14' E 014°23'  

Dump ship's entire track history